createdAt,value
2019-05-07T00:02:32.355Z,12.80
2019-05-07T00:05:04.454Z,12.63
2019-05-07T00:07:35.359Z,9.97
2019-05-07T00:10:12.729Z,9.37
2019-05-07T00:12:43.272Z,9.67
2019-05-07T00:15:14.677Z,11.43
2019-05-07T00:17:45.428Z,13.63
2019-05-07T00:20:17.199Z,13.40
2019-05-07T00:22:48.018Z,9.20
2019-05-07T00:25:18.815Z,10.53
2019-05-07T00:27:49.719Z,12.60
2019-05-07T00:30:22.386Z,11.63
2019-05-07T00:32:53.348Z,10.43
2019-05-07T00:35:28.001Z,10.13
2019-05-07T00:38:03.185Z,10.40
2019-05-07T00:40:52.870Z,10.23
2019-05-07T00:43:26.391Z,10.30
2019-05-07T00:46:02.284Z,9.80
2019-05-07T00:48:33.841Z,9.30
2019-05-07T00:51:22.697Z,11.40
2019-05-07T00:53:53.568Z,10.60
2019-05-07T00:56:25.447Z,10.07
2019-05-07T00:58:56.310Z,12.00
2019-05-07T01:04:23.674Z,12.33
2019-05-07T01:06:54.501Z,9.13
2019-05-07T01:09:25.250Z,9.23
2019-05-07T01:11:57.782Z,8.37
2019-05-07T01:14:28.778Z,9.43
2019-05-07T01:16:59.502Z,8.47
2019-05-07T01:19:32.692Z,8.93
2019-05-07T01:22:03.299Z,8.20
2019-05-07T01:24:34.173Z,8.87
2019-05-07T01:27:04.938Z,9.07
2019-05-07T01:29:38.586Z,8.00
2019-05-07T01:32:34.245Z,10.77
2019-05-07T01:35:12.991Z,9.37
2019-05-07T01:37:43.827Z,8.50
2019-05-07T01:40:14.640Z,15.33
2019-05-07T01:42:45.383Z,8.50
2019-05-07T01:45:16.659Z,10.30
2019-05-07T01:47:47.414Z,11.33
2019-05-07T01:50:18.178Z,9.83
2019-05-07T01:52:49.046Z,12.13
2019-05-07T01:55:19.854Z,8.93
2019-05-07T01:57:52.282Z,9.73
2019-05-07T02:00:23.283Z,9.70
2019-05-07T02:02:59.459Z,6.90
2019-05-07T02:05:52.708Z,8.63
2019-05-07T02:08:42.256Z,7.93
2019-05-07T02:11:15.403Z,9.63
2019-05-07T02:13:46.191Z,13.13
2019-05-07T02:16:17.329Z,8.17
2019-05-07T02:18:49.291Z,7.27
2019-05-07T02:21:21.949Z,11.17
2019-05-07T02:23:52.566Z,12.10
2019-05-07T02:26:23.359Z,10.27
2019-05-07T02:28:54.148Z,8.90
2019-05-07T02:31:24.935Z,9.60
2019-05-07T02:33:55.719Z,8.07
2019-05-07T02:36:26.465Z,7.77
2019-05-07T02:39:12.889Z,8.30
2019-05-07T02:41:44.474Z,9.47
2019-05-07T02:44:15.396Z,8.43
2019-05-07T02:46:57.055Z,8.23
2019-05-07T02:49:33.089Z,9.33
2019-05-07T02:52:25.529Z,8.87
2019-05-07T02:55:23.231Z,9.17
2019-05-07T02:57:54.316Z,11.00
2019-05-07T03:00:25.237Z,10.73
2019-05-07T03:02:56.013Z,11.67
2019-05-07T03:05:26.784Z,15.40
2019-05-07T03:07:57.607Z,13.83
2019-05-07T03:10:28.406Z,16.07
2019-05-07T03:12:59.220Z,17.90
2019-05-07T03:15:32.876Z,16.40
2019-05-07T03:18:03.471Z,18.73
2019-05-07T03:20:43.085Z,18.07
2019-05-07T03:23:16.998Z,18.27
2019-05-07T03:25:57.151Z,21.40
2019-05-07T03:28:27.921Z,15.97
2019-05-07T03:31:06.218Z,19.00
2019-05-07T03:33:47.213Z,17.53
2019-05-07T03:36:17.717Z,18.93
2019-05-07T03:38:48.639Z,17.67
2019-05-07T03:41:22.700Z,19.67
2019-05-07T03:43:53.645Z,21.57
2019-05-07T03:46:26.232Z,19.90
2019-05-07T03:48:57.008Z,19.43
2019-05-07T03:51:27.891Z,18.50
2019-05-07T03:53:58.758Z,18.60
2019-05-07T03:56:33.029Z,17.77
2019-05-07T03:59:03.629Z,15.37
2019-05-07T04:01:35.650Z,16.30
2019-05-07T04:04:06.545Z,15.67
2019-05-07T04:06:37.953Z,13.47
2019-05-07T04:09:08.706Z,14.27
2019-05-07T04:11:43.057Z,15.43
2019-05-07T04:14:13.701Z,13.90
2019-05-07T04:16:44.915Z,14.77
2019-05-07T04:19:15.862Z,13.60
2019-05-07T04:21:46.715Z,12.97
2019-05-07T04:24:24.636Z,13.53
2019-05-07T04:27:03.723Z,14.07
2019-05-07T04:29:35.254Z,15.53
2019-05-07T04:32:10.444Z,12.33
2019-05-07T04:35:03.572Z,15.03
2019-05-07T04:37:33.471Z,15.27
2019-05-07T04:40:04.893Z,14.83
2019-05-07T04:42:35.735Z,13.40
2019-05-07T04:45:06.624Z,13.80
2019-05-07T04:47:42.963Z,13.97
2019-05-07T04:50:13.969Z,15.87
2019-05-07T04:52:44.227Z,13.53
2019-05-07T04:55:15.190Z,16.60
2019-05-07T04:57:45.996Z,13.17
2019-05-07T05:00:17.627Z,15.47
2019-05-07T05:03:16.959Z,14.03
2019-05-07T05:05:47.906Z,14.93
2019-05-07T05:08:18.659Z,14.27
2019-05-07T05:10:49.429Z,16.23
2019-05-07T05:13:20.183Z,15.13
2019-05-07T05:15:52.740Z,14.40
2019-05-07T05:18:23.542Z,17.17
2019-05-07T05:21:28.530Z,17.40
2019-05-07T05:24:03.111Z,16.90
2019-05-07T05:26:33.893Z,18.10
2019-05-07T05:29:04.880Z,19.10
2019-05-07T05:31:35.767Z,16.70
2019-05-07T05:34:06.575Z,16.97
2019-05-07T05:36:37.479Z,17.10
2019-05-07T05:39:08.998Z,16.03
2019-05-07T05:41:42.212Z,19.63
2019-05-07T05:44:32.213Z,17.30
2019-05-07T05:47:03.401Z,18.27
2019-05-07T05:49:34.262Z,21.80
2019-05-07T05:52:22.142Z,18.07
2019-05-07T05:55:02.428Z,16.37
2019-05-07T05:57:54.907Z,15.73
2019-05-07T06:01:02.740Z,15.37
2019-05-07T06:03:45.506Z,16.97
2019-05-07T06:06:25.111Z,15.90
2019-05-07T06:09:14.908Z,13.63
2019-05-07T06:12:03.981Z,14.70
2019-05-07T06:14:38.679Z,12.90
2019-05-07T06:17:28.396Z,13.63
2019-05-07T06:20:36.403Z,14.93
2019-05-07T06:23:33.044Z,14.50
2019-05-07T06:26:05.318Z,14.70
2019-05-07T06:28:36.198Z,15.40
2019-05-07T06:31:06.984Z,15.13
2019-05-07T06:33:37.847Z,15.97
2019-05-07T06:36:08.816Z,13.30
2019-05-07T06:38:58.348Z,13.10
2019-05-07T06:41:46.843Z,16.30
2019-05-07T06:44:22.408Z,14.53
2019-05-07T06:46:55.622Z,11.73
2019-05-07T06:49:26.467Z,13.57
2019-05-07T06:51:57.411Z,14.17
2019-05-07T06:54:28.164Z,14.13
2019-05-07T06:56:59.060Z,12.37
2019-05-07T06:59:44.139Z,10.60
2019-05-07T07:02:33.119Z,12.33
2019-05-07T07:05:26.112Z,11.70
2019-05-07T07:08:02.294Z,12.20
2019-05-07T07:10:52.129Z,12.80
2019-05-07T07:13:25.002Z,12.80
2019-05-07T07:15:55.792Z,12.97
2019-05-07T07:18:26.723Z,12.87
2019-05-07T07:20:57.530Z,13.43
2019-05-07T07:23:28.426Z,11.27
2019-05-07T07:25:59.270Z,12.27
2019-05-07T07:28:32.403Z,15.80
2019-05-07T07:31:12.989Z,14.90
2019-05-07T07:33:45.326Z,13.97
2019-05-07T07:36:16.861Z,13.50
2019-05-07T07:38:47.767Z,12.67
2019-05-07T07:41:37.450Z,13.27
2019-05-07T07:44:08.293Z,15.70
2019-05-07T07:46:42.294Z,12.43
2019-05-07T07:49:15.033Z,11.73
2019-05-07T07:51:45.906Z,14.30
2019-05-07T07:54:17.114Z,11.83
2019-05-07T07:57:06.971Z,12.50
2019-05-07T07:59:57.933Z,10.03
2019-05-07T08:02:38.866Z,12.97
2019-05-07T08:05:12.370Z,11.97
2019-05-07T08:07:42.755Z,11.87
2019-05-07T08:10:13.813Z,12.93
2019-05-07T08:12:44.703Z,13.43
2019-05-07T08:15:20.931Z,14.57
2019-05-07T08:17:48.876Z,13.20
2019-05-07T08:20:22.179Z,12.57
2019-05-07T08:22:53.395Z,12.83
2019-05-07T08:25:43.172Z,14.47
2019-05-07T08:28:14.129Z,13.63
2019-05-07T08:30:48.962Z,13.87
2019-05-07T08:33:32.113Z,14.80
2019-05-07T08:36:28.003Z,16.97
2019-05-07T08:39:02.105Z,12.93
2019-05-07T08:41:33.458Z,13.30
2019-05-07T08:44:14.566Z,11.50
2019-05-07T08:46:54.999Z,10.10
2019-05-07T08:49:35.636Z,11.60
2019-05-07T08:52:03.572Z,11.20
2019-05-07T08:54:34.244Z,11.93
2019-05-07T08:57:05.099Z,12.00
2019-05-07T08:59:37.110Z,8.47
2019-05-07T09:02:08.016Z,7.67
2019-05-07T09:04:38.858Z,10.27
2019-05-07T09:07:09.768Z,9.27
2019-05-07T09:09:42.684Z,10.30
2019-05-07T09:12:13.526Z,9.17
2019-05-07T09:14:44.369Z,8.13
2019-05-07T09:17:15.222Z,7.00
2019-05-07T09:19:51.167Z,8.87
2019-05-07T09:22:18.422Z,8.73
2019-05-07T09:24:49.406Z,9.30
2019-05-07T09:27:30.130Z,7.97
2019-05-07T09:30:28.418Z,7.40
2019-05-07T09:33:06.425Z,8.63
2019-05-07T09:35:44.338Z,9.57
2019-05-07T09:38:15.398Z,7.20
2019-05-07T09:40:46.308Z,10.60
2019-05-07T09:43:17.167Z,8.00
2019-05-07T09:45:48.000Z,6.53
2019-05-07T09:48:18.759Z,6.80
2019-05-07T09:50:50.496Z,7.97
2019-05-07T09:53:22.838Z,12.77
2019-05-07T09:55:55.379Z,7.83
2019-05-07T09:58:36.757Z,11.40
2019-05-07T10:01:01.937Z,10.47
2019-05-07T10:03:32.595Z,7.10
2019-05-07T10:06:04.583Z,6.77
2019-05-07T10:08:35.630Z,8.60
2019-05-07T10:11:08.051Z,8.37
2019-05-07T10:13:44.846Z,9.17
2019-05-07T10:16:20.125Z,7.03
2019-05-07T10:18:52.022Z,7.33
2019-05-07T10:21:22.890Z,6.27
2019-05-07T10:23:53.645Z,7.20
2019-05-07T10:26:24.595Z,6.73
2019-05-07T10:28:56.906Z,7.90
2019-05-07T10:31:27.779Z,7.90
2019-05-07T10:33:59.926Z,9.00
2019-05-07T10:36:32.014Z,9.07
2019-05-07T10:39:03.991Z,6.90
2019-05-07T10:41:36.700Z,8.23
2019-05-07T10:44:08.023Z,7.47
2019-05-07T10:46:56.530Z,7.73
2019-05-07T10:49:33.510Z,9.27
2019-05-07T10:52:05.375Z,8.07
2019-05-07T10:54:36.236Z,7.13
2019-05-07T10:57:07.381Z,7.70
2019-05-07T10:59:38.337Z,9.00
2019-05-07T11:02:14.560Z,8.27
2019-05-07T11:04:45.899Z,7.63
2019-05-07T11:07:17.152Z,10.30
2019-05-07T11:09:49.017Z,8.47
2019-05-07T11:12:20.099Z,11.40
2019-05-07T11:14:52.121Z,7.47
2019-05-07T11:17:44.731Z,10.10
2019-05-07T11:20:17.083Z,11.78
2019-05-07T11:22:47.867Z,11.67
2019-05-07T11:25:18.772Z,9.33
2019-05-07T11:27:49.724Z,12.90
2019-05-07T11:30:22.840Z,11.53
2019-05-07T11:32:53.822Z,8.63
2019-05-07T11:35:24.767Z,10.87
2019-05-07T11:37:55.666Z,10.27
2019-05-07T11:40:27.077Z,8.50
2019-05-07T11:43:22.715Z,8.83
2019-05-07T11:45:59.146Z,10.17
2019-05-07T11:48:32.826Z,8.40
2019-05-07T11:51:22.997Z,10.20
2019-05-07T11:54:12.926Z,7.20
2019-05-07T11:56:45.102Z,9.23
2019-05-07T11:59:16.011Z,7.20
2019-05-07T12:01:52.728Z,8.40
2019-05-07T12:04:27.489Z,7.33
2019-05-07T12:06:57.846Z,7.13
2019-05-07T12:09:28.666Z,8.70
2019-05-07T12:11:59.514Z,7.57
2019-05-07T12:14:34.859Z,10.23
2019-05-07T12:17:04.748Z,10.30
2019-05-07T12:19:35.645Z,8.97
2019-05-07T12:22:06.837Z,8.20
2019-05-07T12:24:37.799Z,8.83
2019-05-07T12:27:08.657Z,8.67
2019-05-07T12:29:39.487Z,8.33
2019-05-07T12:32:32.349Z,8.43
2019-05-07T12:35:09.786Z,8.63
2019-05-07T12:37:42.374Z,8.80
2019-05-07T12:40:13.619Z,11.23
2019-05-07T12:42:45.670Z,7.30
2019-05-07T12:45:16.675Z,9.07
2019-05-07T12:47:47.539Z,10.47
2019-05-07T12:50:18.363Z,8.80
2019-05-07T12:52:54.330Z,11.43
2019-05-07T12:55:33.170Z,7.63
2019-05-07T12:58:04.074Z,8.77
2019-05-07T13:00:52.882Z,11.18
2019-05-07T13:03:43.552Z,12.23
2019-05-07T13:06:14.483Z,8.63
2019-05-07T13:08:46.484Z,8.83
2019-05-07T13:11:17.488Z,12.43
2019-05-07T13:13:48.349Z,14.27
2019-05-07T13:16:19.592Z,9.97
2019-05-07T13:18:52.444Z,12.20
2019-05-07T13:21:23.052Z,11.83
2019-05-07T13:23:53.903Z,11.97
2019-05-07T13:26:24.687Z,16.62
2019-05-07T13:28:55.547Z,14.73
2019-05-07T13:31:27.768Z,14.83
2019-05-07T13:34:02.853Z,16.30
2019-05-07T13:36:34.790Z,12.00
2019-05-07T13:39:23.470Z,7.00
2019-05-07T13:42:06.554Z,10.50
2019-05-07T13:45:05.802Z,11.53
2019-05-07T13:47:41.998Z,12.57
2019-05-07T13:50:13.110Z,11.40
2019-05-07T13:52:44.835Z,9.87
2019-05-07T13:55:15.870Z,10.20
2019-05-07T13:57:46.807Z,12.43
2019-05-07T14:00:26.238Z,11.57
2019-05-07T14:02:58.194Z,13.67
2019-05-07T14:05:29.181Z,11.83
2019-05-07T14:08:00.175Z,11.03
2019-05-07T14:10:33.558Z,12.20
2019-05-07T14:13:12.599Z,11.07
2019-05-07T14:15:36.083Z,11.27
2019-05-07T14:18:07.160Z,13.00
2019-05-07T14:20:38.030Z,11.97
2019-05-07T14:23:09.192Z,11.40
2019-05-07T14:25:41.875Z,11.77
2019-05-07T14:28:12.534Z,9.40
2019-05-07T14:30:43.410Z,10.40
2019-05-07T14:33:19.475Z,8.20
2019-05-07T14:36:04.381Z,8.87
2019-05-07T14:38:45.778Z,11.43
2019-05-07T14:41:16.815Z,9.20
2019-05-07T14:43:56.190Z,12.90
2019-05-07T14:46:40.600Z,12.00
2019-05-07T14:48:59.688Z,11.20
2019-05-07T14:51:32.390Z,8.33
2019-05-07T14:54:04.272Z,11.43
2019-05-07T14:56:35.538Z,9.67
2019-05-07T14:59:06.643Z,11.43
2019-05-07T15:01:37.446Z,11.47
2019-05-07T15:04:08.420Z,9.10
2019-05-07T15:06:41.063Z,10.17
2019-05-07T15:09:12.257Z,10.97
2019-05-07T15:11:43.370Z,10.13
2019-05-07T15:14:14.437Z,9.60
2019-05-07T15:16:45.391Z,10.40
2019-05-07T15:19:16.352Z,10.77
2019-05-07T15:21:48.611Z,13.67
2019-05-07T15:24:21.955Z,10.00
2019-05-07T15:26:54.234Z,12.43
2019-05-07T15:29:25.250Z,11.53
2019-05-07T15:31:59.358Z,10.97
2019-05-07T15:34:32.838Z,12.53
2019-05-07T15:37:04.927Z,13.72
2019-05-07T15:39:35.871Z,13.55
2019-05-07T15:42:06.770Z,11.60
2019-05-07T15:44:37.546Z,11.83
2019-05-07T15:47:13.055Z,9.90
2019-05-07T15:49:44.045Z,11.33
2019-05-07T15:52:22.138Z,14.50
2019-05-07T15:54:53.134Z,12.27
2019-05-07T15:57:27.028Z,12.80
2019-05-07T16:00:06.965Z,12.43
2019-05-07T16:02:45.350Z,11.97
2019-05-07T16:05:16.958Z,11.13
2019-05-07T16:07:49.272Z,12.00
2019-05-07T16:10:23.271Z,9.47
2019-05-07T16:12:54.178Z,9.80
2019-05-07T16:15:26.248Z,9.33
2019-05-07T16:18:02.827Z,10.87
2019-05-07T16:20:34.595Z,11.87
2019-05-07T16:23:14.689Z,12.60
2019-05-07T16:25:38.857Z,10.50
2019-05-07T16:28:09.933Z,9.47
2019-05-07T16:30:42.698Z,9.77
2019-05-07T16:33:13.705Z,11.23
2019-05-07T16:35:45.380Z,9.53
2019-05-07T16:38:18.330Z,9.47
2019-05-07T16:40:49.119Z,8.63
2019-05-07T16:43:21.974Z,10.63
2019-05-07T16:45:52.810Z,10.50
2019-05-07T16:48:23.636Z,11.13
2019-05-07T16:50:55.903Z,12.73
2019-05-07T16:53:30.059Z,9.77
2019-05-07T16:55:59.364Z,8.40
2019-05-07T16:58:37.484Z,10.20
2019-05-07T17:01:09.871Z,10.67
2019-05-07T17:03:48.179Z,12.17
2019-05-07T17:06:18.978Z,9.43
2019-05-07T17:09:08.799Z,12.70
2019-05-07T17:11:40.948Z,10.73
2019-05-07T17:14:12.944Z,14.73
2019-05-07T17:16:44.036Z,8.80
2019-05-07T17:19:15.733Z,10.83
2019-05-07T17:21:47.756Z,11.33
2019-05-07T17:24:18.813Z,10.17
2019-05-07T17:26:51.286Z,11.57
2019-05-07T17:29:23.457Z,10.37
2019-05-07T17:31:55.941Z,8.50
2019-05-07T17:34:29.493Z,14.07
2019-05-07T17:37:02.013Z,10.37
2019-05-07T17:39:33.934Z,9.67
2019-05-07T17:42:04.766Z,10.13
2019-05-07T17:44:35.583Z,11.53
2019-05-07T17:47:06.505Z,11.07
2019-05-07T17:49:37.299Z,11.80
2019-05-07T17:52:09.962Z,9.40
2019-05-07T17:54:42.405Z,11.97
2019-05-07T17:57:15.821Z,11.83
2019-05-07T17:59:45.901Z,10.03
2019-05-07T18:02:23.836Z,11.00
2019-05-07T18:04:54.837Z,10.40
2019-05-07T18:07:26.011Z,11.53
2019-05-07T18:09:56.982Z,11.07
2019-05-07T18:12:28.063Z,10.80
2019-05-07T18:14:58.962Z,11.23
2019-05-07T18:17:35.893Z,11.80
2019-05-07T18:20:07.251Z,9.43
2019-05-07T18:22:38.221Z,13.67
2019-05-07T18:25:09.092Z,11.27
2019-05-07T18:27:41.951Z,12.60
2019-05-07T18:30:13.165Z,14.60
2019-05-07T18:32:48.332Z,12.20
2019-05-07T18:35:19.140Z,14.97
2019-05-07T18:37:53.164Z,11.13
2019-05-07T18:40:24.355Z,10.63
2019-05-07T18:42:55.395Z,12.03
2019-05-07T18:45:26.404Z,10.87
2019-05-07T18:47:57.293Z,9.37
2019-05-07T18:50:28.319Z,10.87
2019-05-07T18:52:59.404Z,8.77
2019-05-07T18:55:30.473Z,9.13
2019-05-07T18:58:02.762Z,11.50
2019-05-07T19:00:37.317Z,10.93
2019-05-07T19:03:08.231Z,9.83
2019-05-07T19:05:39.217Z,10.57
2019-05-07T19:08:12.419Z,12.53
2019-05-07T19:10:44.347Z,10.20
2019-05-07T19:13:15.333Z,10.93
2019-05-07T19:15:46.449Z,12.03
2019-05-07T19:18:17.377Z,11.10
2019-05-07T19:20:48.363Z,11.00
2019-05-07T19:23:22.315Z,12.17
2019-05-07T19:25:53.123Z,11.50
2019-05-07T19:28:24.289Z,11.88
2019-05-07T19:30:56.330Z,13.30
2019-05-07T19:33:27.487Z,13.70
2019-05-07T19:35:58.567Z,13.13
2019-05-07T19:41:18.586Z,11.40
2019-05-07T19:43:49.486Z,11.88
2019-05-07T19:46:22.687Z,10.95
2019-05-07T19:48:54.975Z,10.88
2019-05-07T19:51:26.118Z,11.33
2019-05-07T19:53:57.058Z,11.00
2019-05-07T19:56:28.003Z,12.10
2019-05-07T19:58:59.349Z,11.53
2019-05-07T20:01:42.616Z,12.60
2019-05-07T20:04:13.616Z,11.78
2019-05-07T20:06:44.542Z,11.88
2019-05-07T20:09:17.437Z,12.10
2019-05-07T20:11:49.247Z,11.68
2019-05-07T20:14:22.138Z,11.30
2019-05-07T20:16:53.259Z,11.17
2019-05-07T20:19:24.361Z,11.78
2019-05-07T20:21:55.460Z,13.75
2019-05-07T20:24:26.398Z,13.53
2019-05-07T20:26:57.324Z,12.73
2019-05-07T20:29:28.263Z,13.80
2019-05-07T20:32:00.104Z,13.00
2019-05-07T20:34:33.259Z,14.23
2019-05-07T20:37:03.736Z,12.90
2019-05-07T20:39:34.669Z,12.20
2019-05-07T20:42:06.699Z,13.38
2019-05-07T20:44:37.496Z,11.77
2019-05-07T20:47:08.370Z,13.90
2019-05-07T20:49:39.274Z,12.47
2019-05-07T20:52:10.212Z,11.67
2019-05-07T20:54:50.169Z,12.95
2019-05-07T20:57:24.540Z,12.97
2019-05-07T20:59:55.388Z,13.23
2019-05-07T21:02:26.534Z,13.17
2019-05-07T21:04:57.466Z,14.10
2019-05-07T21:07:29.923Z,13.63
2019-05-07T21:10:02.079Z,12.80
2019-05-07T21:12:34.882Z,13.57
2019-05-07T21:15:06.418Z,13.97
2019-05-07T21:17:38.409Z,12.50
2019-05-07T21:20:09.508Z,17.13
2019-05-07T21:22:42.439Z,14.93
2019-05-07T21:25:13.049Z,11.60
2019-05-07T21:27:43.912Z,12.50
2019-05-07T21:30:17.572Z,11.90
2019-05-07T21:32:47.574Z,12.93
2019-05-07T21:35:18.466Z,12.80
2019-05-07T21:37:49.344Z,14.17
2019-05-07T21:40:22.319Z,16.40
2019-05-07T21:42:53.052Z,14.60
2019-05-07T21:45:23.950Z,13.77
2019-05-07T21:47:54.864Z,15.43
2019-05-07T21:50:25.731Z,18.40
2019-05-07T21:53:02.845Z,14.83
2019-05-07T21:55:58.888Z,17.03
2019-05-07T21:58:34.670Z,15.73
2019-05-07T22:01:32.784Z,16.10
2019-05-07T22:04:04.064Z,15.83
2019-05-07T22:06:34.982Z,14.53
2019-05-07T22:09:08.866Z,16.33
2019-05-07T22:11:39.871Z,18.33
2019-05-07T22:14:12.923Z,16.47
2019-05-07T22:16:44.090Z,17.13
2019-05-07T22:19:14.977Z,15.70
2019-05-07T22:21:45.746Z,15.83
2019-05-07T22:24:16.560Z,19.87
2019-05-07T22:26:47.318Z,18.50
2019-05-07T22:29:22.596Z,17.80
2019-05-07T22:32:11.864Z,17.87
2019-05-07T22:35:02.753Z,18.00
2019-05-07T22:37:34.730Z,18.20
2019-05-07T22:40:12.146Z,20.43
2019-05-07T22:42:44.666Z,19.67
2019-05-07T22:45:15.923Z,17.60
2019-05-07T22:47:46.811Z,16.97
2019-05-07T22:50:17.691Z,19.30
2019-05-07T22:52:48.599Z,18.00
2019-05-07T22:55:21.477Z,17.62
2019-05-07T22:58:14.397Z,19.33
2019-05-07T23:00:52.585Z,17.87
2019-05-07T23:03:23.386Z,16.70
2019-05-07T23:05:57.062Z,19.70
2019-05-07T23:08:27.954Z,17.30
2019-05-07T23:10:58.934Z,20.10
2019-05-07T23:13:31.747Z,20.57
2019-05-07T23:16:02.644Z,18.70
2019-05-07T23:18:34.094Z,20.13
2019-05-07T23:21:04.881Z,20.00
2019-05-07T23:23:36.665Z,18.43
2019-05-07T23:26:07.427Z,17.50
2019-05-07T23:28:38.330Z,19.70
2019-05-07T23:31:09.128Z,21.93
2019-05-07T23:33:39.972Z,22.40
2019-05-07T23:36:12.934Z,20.53
2019-05-07T23:38:43.967Z,17.23
2019-05-07T23:41:30.392Z,19.00
2019-05-07T23:44:12.477Z,20.07
2019-05-07T23:46:44.781Z,22.30
2019-05-07T23:49:16.201Z,18.93
2019-05-07T23:51:46.991Z,21.60
2019-05-07T23:54:17.962Z,22.10
2019-05-07T23:57:02.881Z,21.47
2019-05-07T23:59:22.137Z,18.03
